Time;durP1;ratioP1;P1;durP2;ratioP2;P2;SDS_P1;SDS_P2;PMS_P1;PMS_P2;Temp;Humidity;BMP_temperature;BMP_pressure;BME280_temperature;BME280_humidity;BME280_pressure;Samples;Min_cycle;Max_cycle;Signal;HPM_P1;HPM_P2
2022/05/24 00:00:28;;;;;;;9.60;4.50;;;13.50;99.90;;;;;;5026230;28;20561;-70
2022/05/24 00:02:55;;;;;;;9.43;4.90;;;13.50;99.90;;;;;;5007963;28;20115;-68
2022/05/24 00:05:23;;;;;;;7.72;3.80;;;13.50;99.90;;;;;;5009352;28;20064;-69
2022/05/24 00:07:49;;;;;;;10.30;4.30;;;13.50;99.90;;;;;;5024609;28;20045;-74
2022/05/24 00:10:20;;;;;;;5.05;3.45;;;13.50;99.90;;;;;;5026335;28;20057;-70
2022/05/24 00:12:45;;;;;;;5.85;3.50;;;13.50;99.90;;;;;;5025909;28;20048;-67
2022/05/24 00:15:24;;;;;;;6.30;2.95;;;13.50;99.90;;;;;;5022596;28;20109;-65
2022/05/24 00:18:17;;;;;;;7.63;2.97;;;13.50;99.90;;;;;;5005548;28;20046;-69
2022/05/24 00:21:03;;;;;;;9.48;4.30;;;13.40;99.90;;;;;;5003991;28;20054;-67
2022/05/24 00:23:30;;;;;;;6.28;3.13;;;13.50;99.90;;;;;;5005974;28;20100;-71
2022/05/24 00:26:00;;;;;;;6.32;3.20;;;13.40;99.90;;;;;;5026535;28;20038;-71
2022/05/24 00:28:29;;;;;;;5.30;3.00;;;13.40;99.90;;;;;;5026203;28;20488;-67
2022/05/24 00:30:56;;;;;;;7.88;3.30;;;13.40;99.90;;;;;;5025435;28;20057;-69
2022/05/24 00:33:21;;;;;;;8.90;3.47;;;13.40;99.90;;;;;;5025872;28;20041;-67
2022/05/24 00:35:48;;;;;;;7.93;3.28;;;13.40;99.90;;;;;;5008789;28;20060;-69
2022/05/24 00:38:20;;;;;;;11.73;3.42;;;13.40;99.90;;;;;;5024840;28;20102;-76
2022/05/24 00:40:45;;;;;;;7.95;3.25;;;13.40;99.90;;;;;;5025854;28;20578;-66
2022/05/24 00:43:24;;;;;;;5.35;2.97;;;13.40;99.90;;;;;;5009683;28;20096;-71
2022/05/24 00:45:53;;;;;;;8.40;2.75;;;13.40;99.90;;;;;;5025598;28;20049;-68
2022/05/24 00:48:28;;;;;;;4.80;3.45;;;13.40;99.90;;;;;;5025267;28;20060;-74
2022/05/24 00:50:54;;;;;;;4.75;3.15;;;13.30;99.90;;;;;;5024574;28;20053;-66
2022/05/24 00:53:25;;;;;;;4.18;3.00;;;13.30;99.90;;;;;;5025599;28;20045;-71
2022/05/24 00:55:59;;;;;;;5.20;3.15;;;13.30;99.90;;;;;;5008471;28;20050;-66
2022/05/24 00:58:37;;;;;;;8.05;4.20;;;13.30;99.90;;;;;;5025693;28;20143;-73
2022/05/24 01:01:15;;;;;;;6.78;3.45;;;13.20;99.90;;;;;;5024197;28;20492;-69
2022/05/24 01:03:40;;;;;;;8.63;3.22;;;13.20;99.90;;;;;;5025525;28;20056;-72
2022/05/24 01:06:06;;;;;;;4.43;3.15;;;13.10;99.90;;;;;;5024868;28;20050;-69
2022/05/24 01:08:32;;;;;;;6.05;3.50;;;13.10;99.90;;;;;;5008882;28;20053;-65
2022/05/24 01:11:01;;;;;;;6.47;3.30;;;13.00;99.90;;;;;;5024188;28;20049;-71
2022/05/24 01:13:30;;;;;;;9.32;3.60;;;13.00;99.90;;;;;;5025944;28;20049;-67
2022/05/24 01:15:55;;;;;;;7.72;3.70;;;13.00;99.90;;;;;;5024280;28;20149;-67
2022/05/24 01:18:23;;;;;;;7.70;3.53;;;13.00;99.90;;;;;;5024426;28;20160;-69
2022/05/24 01:20:55;;;;;;;5.63;2.70;;;13.00;99.90;;;;;;5029510;28;20774;-64
2022/05/24 01:23:43;;;;;;;3.88;3.42;;;12.90;99.90;;;;;;5028605;28;20128;-70
2022/05/24 01:26:34;;;;;;;6.30;3.15;;;13.00;99.90;;;;;;5009044;28;20052;-68
2022/05/24 01:29:03;;;;;;;3.60;2.78;;;12.90;99.90;;;;;;4992943;28;20107;-64
2022/05/24 01:36:09;;;;;;;;;;;12.90;99.90;;;;;;5029726;28;20251;-69
2022/05/24 01:37:00;;;;;;;5.90;3.50;;;12.90;99.90;;;;;;5027307;28;20467;-68
2022/05/24 01:39:26;;;;;;;12.73;3.95;;;12.90;99.90;;;;;;5013218;28;20511;-68
2022/05/24 01:41:52;;;;;;;5.07;3.33;;;12.90;99.90;;;;;;5012936;28;20081;-69
2022/05/24 01:44:57;;;;;;;5.35;3.10;;;12.90;99.90;;;;;;5029494;28;20092;-75
2022/05/24 01:47:25;;;;;;;5.70;2.88;;;12.90;99.90;;;;;;5009014;28;20050;-67
2022/05/24 01:49:56;;;;;;;5.22;3.00;;;12.80;99.90;;;;;;5024400;28;20060;-72
2022/05/24 01:52:43;;;;;;;9.80;3.25;;;12.80;99.90;;;;;;5007641;28;20065;-71
2022/05/24 01:55:18;;;;;;;3.67;2.88;;;12.80;99.90;;;;;;5011254;28;20053;-64
2022/05/24 01:57:50;;;;;;;6.57;2.95;;;12.80;99.90;;;;;;5028142;28;20058;-70
2022/05/24 02:00:16;;;;;;;9.07;3.20;;;12.70;99.90;;;;;;5029283;28;20045;-71
2022/05/24 02:02:43;;;;;;;5.20;2.58;;;12.70;99.90;;;;;;5011124;28;20046;-70
2022/05/24 02:05:10;;;;;;;5.20;2.72;;;12.60;99.90;;;;;;5026748;28;20050;-66
2022/05/24 02:07:37;;;;;;;5.97;2.50;;;12.50;99.90;;;;;;5027975;28;20053;-65
2022/05/24 02:10:03;;;;;;;9.93;3.42;;;12.50;99.90;;;;;;5026082;28;20080;-68
2022/05/24 02:12:40;;;;;;;4.70;2.63;;;12.40;99.90;;;;;;5027983;28;20072;-68
2022/05/24 02:15:12;;;;;;;5.93;2.80;;;12.40;99.90;;;;;;5025867;28;20037;-70
2022/05/24 02:18:00;;;;;;;5.60;2.88;;;12.40;99.90;;;;;;5010459;28;20057;-73
2022/05/24 02:20:32;;;;;;;4.80;2.70;;;12.30;99.90;;;;;;5010296;28;20140;-75
2022/05/24 02:22:58;;;;;;;3.60;3.05;;;12.30;99.90;;;;;;5026339;28;20061;-72
2022/05/24 02:25:33;;;;;;;6.45;3.47;;;12.20;99.90;;;;;;5027755;28;20139;-64
2022/05/24 02:27:59;;;;;;;5.82;3.50;;;12.20;99.90;;;;;;5026827;28;20490;-69
2022/05/24 02:30:27;;;;;;;11.07;3.35;;;12.20;99.90;;;;;;5009544;28;20045;-70
2022/05/24 02:32:55;;;;;;;9.13;4.07;;;12.20;99.90;;;;;;5025897;28;20053;-73
2022/05/24 02:35:21;;;;;;;6.40;3.78;;;12.10;99.90;;;;;;5009623;28;20048;-69
2022/05/24 02:37:47;;;;;;;6.97;3.67;;;12.20;99.90;;;;;;5027554;28;20092;-69
2022/05/24 02:42:58;;;;;;;8.02;4.10;;;12.10;99.90;;;;;;5026335;28;20049;-72
2022/05/24 02:45:24;;;;;;;8.18;3.70;;;12.10;99.90;;;;;;5025762;28;20042;-66
2022/05/24 02:47:50;;;;;;;7.10;3.72;;;12.10;99.90;;;;;;5025730;28;20128;-70
2022/05/24 02:50:16;;;;;;;7.25;4.20;;;12.10;99.90;;;;;;5025306;28;20222;-66
2022/05/24 02:52:42;;;;;;;7.28;3.72;;;12.10;99.90;;;;;;5027280;28;20126;-71
2022/05/24 02:55:12;;;;;;;7.57;4.00;;;12.10;99.90;;;;;;5025591;28;20046;-72
2022/05/24 02:57:38;;;;;;;;;;;12.10;99.90;;;;;;5027265;28;20065;-71
2022/05/24 03:00:10;;;;;;;11.23;5.05;;;12.10;99.90;;;;;;5025404;28;19936;-71
2022/05/24 03:02:37;;;;;;;7.75;4.20;;;12.20;99.90;;;;;;5024608;28;20046;-68
2022/05/24 03:05:03;;;;;;;8.90;4.68;;;12.20;99.90;;;;;;5026585;28;20052;-71
2022/05/24 03:10:13;;;;;;;10.00;4.65;;;12.20;99.90;;;;;;5024859;28;20425;-70
2022/05/24 03:15:23;;;;;;;7.53;4.47;;;12.20;99.90;;;;;;5025766;28;20049;-70
2022/05/24 03:17:49;;;;;;;7.35;4.22;;;12.30;99.90;;;;;;5009253;28;20266;-64
2022/05/24 03:20:15;;;;;;;9.52;4.38;;;12.30;99.90;;;;;;5009083;28;20088;-65
2022/05/24 03:22:42;;;;;;;8.15;4.28;;;12.30;99.90;;;;;;5025888;28;20050;-68
2022/05/24 03:25:08;;;;;;;9.10;4.43;;;12.40;99.90;;;;;;5024798;28;20057;-66
2022/05/24 03:27:34;;;;;;;10.40;5.03;;;12.40;99.90;;;;;;5025860;28;20092;-75
2022/05/24 03:29:59;;;;;;;7.93;4.82;;;12.40;99.90;;;;;;4990878;28;20498;-64
2022/05/24 03:32:25;;;;;;;6.40;4.82;;;12.50;99.90;;;;;;5003686;28;20045;-69
2022/05/24 03:34:51;;;;;;;8.93;5.85;;;12.50;99.90;;;;;;5025731;28;20057;-68
2022/05/24 03:37:17;;;;;;;6.80;4.97;;;12.50;99.90;;;;;;5023817;28;20099;-65
2022/05/24 03:39:43;;;;;;;10.60;5.93;;;12.60;99.90;;;;;;5026044;28;20061;-63
2022/05/24 03:42:09;;;;;;;11.57;6.40;;;12.60;99.90;;;;;;5008762;28;20049;-68
2022/05/24 03:44:35;;;;;;;13.93;6.97;;;12.70;99.90;;;;;;5008816;28;20045;-66
2022/05/24 03:47:01;;;;;;;11.13;7.75;;;12.70;99.90;;;;;;5024919;28;20410;-68
2022/05/24 03:49:26;;;;;;;12.50;8.20;;;12.80;99.90;;;;;;5024574;28;20054;-67
2022/05/24 03:51:52;;;;;;;16.58;9.45;;;12.80;99.90;;;;;;5024360;28;20091;-64
2022/05/24 03:54:18;;;;;;;13.23;9.07;;;12.80;99.90;;;;;;5024332;28;20129;-66
2022/05/24 03:58:00;;;;;;;14.43;10.20;;;12.90;99.90;;;;;;5026434;28;20050;-65
2022/05/24 03:59:30;;;;;;;18.30;12.10;;;12.90;99.90;;;;;;5011367;28;20057;-71
2022/05/24 04:01:56;;;;;;;16.42;11.00;;;12.90;99.90;;;;;;5024753;28;20037;-65
2022/05/24 04:04:22;;;;;;;18.05;12.02;;;13.00;99.90;;;;;;5024461;28;20045;-65
2022/05/24 04:06:48;;;;;;;18.50;11.75;;;13.00;99.90;;;;;;5007233;28;20072;-68
2022/05/24 04:09:14;;;;;;;18.80;11.63;;;13.10;99.90;;;;;;5025121;28;20045;-67
2022/05/24 04:11:39;;;;;;;15.52;11.50;;;13.10;99.90;;;;;;5024390;28;20132;-68
2022/05/24 04:14:05;;;;;;;16.88;11.98;;;13.10;99.90;;;;;;5025057;28;20045;-73
2022/05/24 04:16:31;;;;;;;22.13;13.80;;;13.20;99.90;;;;;;4992171;28;20068;-67
2022/05/24 04:18:57;;;;;;;20.23;14.18;;;13.20;99.90;;;;;;5024508;28;20042;-66
2022/05/24 04:21:23;;;;;;;19.08;14.15;;;13.20;99.90;;;;;;5024010;28;20289;-63
2022/05/24 04:23:49;;;;;;;20.60;13.20;;;13.30;99.90;;;;;;5023842;28;20050;-72
2022/05/24 04:26:15;;;;;;;21.98;13.77;;;13.30;99.90;;;;;;5023303;28;20380;-66
2022/05/24 04:28:41;;;;;;;19.27;14.68;;;13.30;99.90;;;;;;5023227;28;20782;-74
2022/05/24 04:31:07;;;;;;;20.73;14.23;;;13.30;99.90;;;;;;5025821;28;20054;-63
2022/05/24 04:33:32;;;;;;;20.83;14.85;;;13.30;99.90;;;;;;5004691;28;20037;-65
2022/05/24 04:35:58;;;;;;;19.52;15.43;;;13.30;99.90;;;;;;5005908;28;20045;-69
2022/05/24 04:38:24;;;;;;;21.77;15.93;;;13.40;99.90;;;;;;5022929;28;20603;-68
2022/05/24 04:43:34;;;;;;;21.58;16.48;;;13.40;99.90;;;;;;5023823;28;20053;-66
2022/05/24 04:45:59;;;;;;;25.08;17.15;;;13.40;99.90;;;;;;5022199;28;20206;-65
2022/05/24 04:48:26;;;;;;;25.85;16.10;;;13.50;99.90;;;;;;4991662;28;20393;-74
2022/05/24 04:50:57;;;;;;;23.60;17.10;;;13.50;99.90;;;;;;5006161;28;20114;-65
2022/05/24 04:53:25;;;;;;;21.63;17.00;;;13.50;99.90;;;;;;5020579;28;20048;-67
2022/05/24 04:55:51;;;;;;;27.48;17.50;;;13.50;99.90;;;;;;5008462;28;20132;-69
2022/05/24 04:58:18;;;;;;;22.83;16.33;;;13.50;99.90;;;;;;5006935;28;20157;-72
2022/05/24 05:00:45;;;;;;;22.27;15.40;;;13.60;99.90;;;;;;5023498;28;20045;-66
2022/05/24 05:03:13;;;;;;;25.15;15.95;;;13.60;99.90;;;;;;5021582;28;20404;-67
2022/05/24 05:05:39;;;;;;;21.98;15.32;;;13.60;99.90;;;;;;5025040;28;20119;-69
2022/05/24 05:08:07;;;;;;;22.70;15.65;;;13.60;99.90;;;;;;5023907;28;20030;-64
2022/05/24 05:10:34;;;;;;;20.48;15.20;;;13.70;99.90;;;;;;5024267;28;20111;-69
2022/05/24 05:13:02;;;;;;;25.00;15.45;;;13.70;99.90;;;;;;5023129;28;20533;-67
2022/05/24 05:15:28;;;;;;;22.30;16.10;;;13.80;99.90;;;;;;5023959;28;20552;-62
2022/05/24 05:18:06;;;;;;;21.80;14.77;;;13.80;99.90;;;;;;5007205;28;20503;-74
2022/05/24 05:20:32;;;;;;;21.48;14.52;;;13.90;99.90;;;;;;5022507;28;20184;-68
2022/05/24 05:22:58;;;;;;;19.38;13.90;;;14.00;99.90;;;;;;5036981;28;20487;-69
2022/05/24 05:25:24;;;;;;;18.05;13.13;;;14.00;99.90;;;;;;5026345;28;20124;-65
2022/05/24 05:27:50;;;;;;;17.23;12.20;;;14.10;99.90;;;;;;5027718;28;20075;-69
2022/05/24 05:33:00;;;;;;;16.00;11.13;;;14.20;99.90;;;;;;5026414;28;20049;-65
2022/05/24 05:35:26;;;;;;;15.57;11.18;;;14.20;99.90;;;;;;5025433;28;20091;-70
2022/05/24 05:37:51;;;;;;;18.70;11.73;;;14.20;99.90;;;;;;5024578;28;20528;-68
2022/05/24 05:40:17;;;;;;;19.60;11.88;;;14.20;99.90;;;;;;5023727;28;20055;-70
2022/05/24 05:42:43;;;;;;;17.55;12.07;;;14.20;99.90;;;;;;5026363;28;20041;-68
2022/05/24 05:45:11;;;;;;;19.13;11.90;;;14.30;99.90;;;;;;5025927;28;20083;-67
2022/05/24 05:47:37;;;;;;;17.63;11.80;;;14.30;99.90;;;;;;5026529;28;20049;-71
2022/05/24 05:50:04;;;;;;;15.18;10.88;;;14.30;99.90;;;;;;5009191;28;20044;-66
2022/05/24 05:52:30;;;;;;;13.77;11.10;;;14.30;99.90;;;;;;5010185;28;20061;-70
2022/05/24 05:54:59;;;;;;;17.60;10.57;;;14.30;99.90;;;;;;5026622;28;20103;-68
2022/05/24 05:57:24;;;;;;;13.98;8.88;;;14.40;99.90;;;;;;5010011;28;20724;-65
2022/05/24 05:59:52;;;;;;;13.77;8.85;;;14.30;99.90;;;;;;5023571;28;20040;-67
2022/05/24 06:02:18;;;;;;;13.18;9.27;;;14.30;99.90;;;;;;5025969;28;20041;-67
2022/05/24 06:04:44;;;;;;;12.82;8.60;;;14.20;99.90;;;;;;5026529;28;20391;-70
2022/05/24 06:07:10;;;;;;;13.20;8.98;;;14.20;99.90;;;;;;5029311;28;20057;-73
2022/05/24 06:09:36;;;;;;;10.48;7.63;;;14.20;99.90;;;;;;5022583;28;20460;-68
2022/05/24 06:12:03;;;;;;;12.55;7.72;;;14.20;99.90;;;;;;5027836;28;20496;-70
2022/05/24 06:14:29;;;;;;;10.02;7.93;;;14.10;99.90;;;;;;5025950;28;20092;-69
2022/05/24 06:16:55;;;;;;;15.10;8.32;;;14.10;99.90;;;;;;5011552;28;20483;-70
2022/05/24 06:19:21;;;;;;;16.02;9.25;;;14.10;99.90;;;;;;5010956;28;20033;-68
2022/05/24 06:21:47;;;;;;;12.68;8.38;;;14.10;99.90;;;;;;5028489;28;20128;-70
2022/05/24 06:24:14;;;;;;;16.65;7.95;;;14.10;99.90;;;;;;5012044;28;20087;-68
2022/05/24 06:26:40;;;;;;;10.98;8.63;;;14.10;99.90;;;;;;5030029;28;20576;-64
2022/05/24 06:29:06;;;;;;;12.60;8.07;;;14.20;99.90;;;;;;5014327;28;20042;-68
2022/05/24 06:31:32;;;;;;;11.65;6.90;;;14.20;99.90;;;;;;5013603;28;20044;-67
2022/05/24 06:34:03;;;;;;;10.68;8.18;;;14.10;99.90;;;;;;5029077;28;20068;-65
2022/05/24 06:36:29;;;;;;;11.80;8.27;;;14.10;99.90;;;;;;5029371;28;20665;-69
2022/05/24 06:38:55;;;;;;;13.43;7.60;;;14.10;99.90;;;;;;5029157;28;20415;-68
2022/05/24 06:41:20;;;;;;;13.15;6.93;;;14.10;99.90;;;;;;5029798;28;20110;-65
2022/05/24 06:43:46;;;;;;;13.40;7.78;;;14.10;99.90;;;;;;5013079;28;20045;-68
2022/05/24 06:46:12;;;;;;;12.43;7.82;;;14.10;99.90;;;;;;5030395;28;20510;-66
2022/05/24 06:48:40;;;;;;;12.88;8.13;;;14.10;99.90;;;;;;5027845;28;20611;-75
2022/05/24 06:51:16;;;;;;;12.25;7.57;;;14.10;99.90;;;;;;5028049;28;20057;-69
2022/05/24 06:53:45;;;;;;;10.98;8.32;;;14.10;99.90;;;;;;5030038;28;20052;-63
2022/05/24 06:56:11;;;;;;;15.75;10.23;;;14.10;99.90;;;;;;5046786;28;20394;-67
2022/05/24 06:58:37;;;;;;;20.00;11.90;;;14.20;99.90;;;;;;5029571;28;20483;-69
2022/05/24 07:03:50;;;;;;;24.17;11.73;;;14.30;99.90;;;;;;5028777;28;20153;-72
2022/05/24 07:06:16;;;;;;;22.10;10.15;;;14.30;99.90;;;;;;5030169;28;20052;-66
2022/05/24 07:08:44;;;;;;;33.67;11.60;;;14.40;99.90;;;;;;5018000;28;20053;-68
2022/05/24 07:11:11;;;;;;;23.90;11.70;;;14.40;99.90;;;;;;4980917;28;20087;-73
2022/05/24 07:13:39;;;;;;;22.92;10.23;;;14.40;99.90;;;;;;5027729;28;20056;-63
2022/05/24 07:16:06;;;;;;;23.83;10.80;;;14.40;99.90;;;;;;5028025;28;20049;-63
2022/05/24 07:18:32;;;;;;;23.15;11.13;;;14.40;99.90;;;;;;5012650;28;20044;-65
2022/05/24 07:20:58;;;;;;;20.75;10.23;;;14.30;99.90;;;;;;5030043;28;20063;-67
2022/05/24 07:23:24;;;;;;;17.95;10.18;;;14.30;99.90;;;;;;5046428;28;20047;-67
2022/05/24 07:25:55;;;;;;;16.85;8.52;;;14.30;99.90;;;;;;5029807;28;20041;-65
2022/05/24 07:28:22;;;;;;;19.30;8.93;;;14.40;99.90;;;;;;5026704;28;20532;-65
2022/05/24 07:30:49;;;;;;;20.35;9.13;;;14.40;99.90;;;;;;5043316;28;20511;-63
2022/05/24 07:33:16;;;;;;;20.20;9.80;;;14.50;99.90;;;;;;5027251;28;20060;-67
2022/05/24 07:35:42;;;;;;;18.05;9.18;;;14.60;99.90;;;;;;5025925;28;20049;-70
2022/05/24 07:38:10;;;;;;;25.55;9.25;;;14.60;99.90;;;;;;5027191;28;20083;-69
2022/05/24 07:46:10;;;;;;;19.20;7.90;;;14.50;99.90;;;;;;5024538;28;20119;-74
2022/05/24 07:48:35;;;;;;;;;;;14.50;99.90;;;;;;5025898;28;20043;-65
2022/05/24 07:51:02;;;;;;;13.63;7.28;;;14.60;99.90;;;;;;5046022;28;19928;-67
2022/05/24 07:53:28;;;;;;;15.20;6.70;;;14.60;99.90;;;;;;5026157;28;20618;-69
2022/05/24 07:55:55;;;;;;;11.13;6.78;;;14.60;99.90;;;;;;5008485;28;20096;-71
2022/05/24 07:58:23;;;;;;;16.80;7.07;;;14.70;99.90;;;;;;5026588;28;20132;-64
2022/05/24 08:00:49;;;;;;;21.08;7.55;;;14.80;99.90;;;;;;5027780;28;20060;-65
2022/05/24 08:03:15;;;;;;;23.27;7.80;;;14.90;99.90;;;;;;5027545;28;20075;-68
2022/05/24 08:05:43;;;;;;;12.67;6.90;;;14.90;99.90;;;;;;5044367;28;20087;-67
2022/05/24 08:08:09;;;;;;;12.27;6.70;;;14.90;99.90;;;;;;5027632;28;20411;-71
2022/05/24 08:10:37;;;;;;;20.40;7.05;;;14.80;99.90;;;;;;5041301;28;20132;-62
2022/05/24 08:13:06;;;;;;;16.63;6.70;;;14.70;99.90;;;;;;5027371;28;20056;-70
2022/05/24 08:15:32;;;;;;;11.13;6.22;;;14.60;99.90;;;;;;5008423;28;20053;-65
2022/05/24 08:17:57;;;;;;;16.60;7.95;;;14.60;99.90;;;;;;5025358;28;20102;-72
2022/05/24 08:20:23;;;;;;;18.98;6.85;;;14.60;99.90;;;;;;5023847;28;20048;-72
2022/05/24 08:22:49;;;;;;;17.67;7.78;;;14.50;99.90;;;;;;5022587;28;20045;-74
2022/05/24 08:25:15;;;;;;;13.93;7.45;;;14.40;99.90;;;;;;5008019;28;20076;-77
2022/05/24 08:27:42;;;;;;;13.02;7.05;;;14.40;99.90;;;;;;5009389;28;20270;-74
2022/05/24 08:30:11;;;;;;;15.57;7.50;;;14.30;99.90;;;;;;5026930;28;20045;-70
2022/05/24 08:32:37;;;;;;;19.52;7.32;;;14.20;99.90;;;;;;5008722;28;20045;-72
2022/05/24 08:35:04;;;;;;;15.88;7.97;;;14.10;99.90;;;;;;5027773;28;20088;-70
2022/05/24 08:37:30;;;;;;;16.52;6.78;;;14.10;99.90;;;;;;5026955;28;20048;-76
2022/05/24 08:39:57;;;;;;;15.82;7.13;;;14.00;99.90;;;;;;5011612;28;20041;-69
2022/05/24 08:43:01;;;;;;;17.70;7.47;;;14.00;99.90;;;;;;5011597;28;20067;-69
2022/05/24 08:48:46;;;;;;;12.45;6.30;;;14.10;99.90;;;;;;5027236;28;20044;-67
2022/05/24 08:51:36;;;;;;;13.07;6.50;;;14.30;99.90;;;;;;5027706;28;20061;-71
2022/05/24 08:54:15;;;;;;;16.25;6.78;;;14.50;99.90;;;;;;5026391;28;20075;-71
2022/05/24 08:57:01;;;;;;;17.17;6.00;;;14.50;99.90;;;;;;5007909;28;20136;-68
2022/05/24 08:59:33;;;;;;;18.30;6.43;;;14.60;99.90;;;;;;5025416;28;20407;-70
2022/05/24 09:02:00;;;;;;;16.05;7.03;;;14.50;99.90;;;;;;5023780;28;20515;-71
2022/05/24 09:04:27;;;;;;;11.85;5.25;;;14.50;99.90;;;;;;5024302;28;20098;-68
2022/05/24 09:06:53;;;;;;;19.40;5.63;;;14.50;99.90;;;;;;5025933;28;20049;-70
2022/05/24 09:09:46;;;;;;;13.35;5.65;;;14.50;99.90;;;;;;5025654;28;20178;-74
2022/05/24 09:12:23;;;;;;;15.38;7.45;;;14.80;99.90;;;;;;5026709;28;20147;-72
2022/05/24 09:15:16;;;;;;;14.20;6.35;;;15.00;99.90;;;;;;5010658;28;20087;-67
2022/05/24 09:18:36;;;;;;;11.63;5.85;;;15.20;99.90;;;;;;5008596;28;20052;-74
2022/05/24 09:21:02;;;;;;;11.23;5.95;;;15.60;99.90;;;;;;4946281;28;20054;-71
2022/05/24 09:23:55;;;;;;;14.43;5.97;;;16.20;99.90;;;;;;4998216;28;20104;-76
2022/05/24 09:26:22;;;;;;;11.55;5.95;;;16.60;99.90;;;;;;5010757;28;20141;-74
2022/05/24 09:28:52;;;;;;;10.50;5.32;;;16.70;99.90;;;;;;5010965;28;20048;-68
2022/05/24 09:31:30;;;;;;;12.35;5.47;;;16.60;99.90;;;;;;5027551;28;20057;-69
2022/05/24 09:34:10;;;;;;;13.13;5.40;;;16.60;99.90;;;;;;5025894;28;20083;-65
2022/05/24 09:36:39;;;;;;;11.43;5.05;;;16.50;99.90;;;;;;5009824;28;20128;-70
2022/05/24 09:39:27;;;;;;;10.93;5.32;;;16.40;99.90;;;;;;5022867;28;20041;-65
2022/05/24 09:42:00;;;;;;;12.15;5.15;;;16.50;99.90;;;;;;5026879;28;20045;-67
2022/05/24 09:44:44;;;;;;;13.27;5.35;;;16.70;99.90;;;;;;5030332;28;20141;-69
2022/05/24 09:47:27;;;;;;;10.88;4.95;;;16.60;99.90;;;;;;5022300;28;20059;-72
2022/05/24 09:50:13;;;;;;;12.50;5.30;;;16.40;99.90;;;;;;5028144;28;20057;-68
2022/05/24 09:52:40;;;;;;;9.27;5.28;;;16.20;99.90;;;;;;5027937;28;20067;-69
2022/05/24 09:55:06;;;;;;;9.02;4.38;;;16.00;99.90;;;;;;5030368;28;20431;-74
2022/05/24 09:57:33;;;;;;;8.68;4.80;;;15.70;99.90;;;;;;5030238;28;20053;-75
2022/05/24 10:00:20;;;;;;;12.02;5.50;;;15.40;99.90;;;;;;5029764;28;20056;-78
2022/05/24 10:02:47;;;;;;;10.93;5.15;;;15.20;99.90;;;;;;5041623;28;20045;-74
2022/05/24 10:05:27;;;;;;;9.57;5.57;;;15.10;99.90;;;;;;5030437;28;20057;-74
2022/05/24 10:07:58;;;;;;;10.57;4.70;;;15.00;99.90;;;;;;5030268;28;20120;-74
2022/05/24 10:10:46;;;;;;;14.82;5.03;;;15.00;99.90;;;;;;5013604;28;20459;-69
2022/05/24 10:13:30;;;;;;;13.48;4.68;;;15.20;99.90;;;;;;5012923;28;20051;-75
2022/05/24 10:16:15;;;;;;;12.18;5.25;;;15.30;99.90;;;;;;5026252;28;20042;-71
2022/05/24 10:18:56;;;;;;;11.38;4.13;;;15.20;99.90;;;;;;5029835;28;20041;-76
2022/05/24 10:21:36;;;;;;;5.60;2.30;;;15.00;99.90;;;;;;5028671;28;20094;-71
2022/05/24 10:24:08;;;;;;;1.70;0.85;;;14.60;99.90;;;;;;5029923;28;20395;-73
2022/05/24 10:26:48;;;;;;;3.05;0.63;;;14.30;99.90;;;;;;5027121;28;20056;-79
2022/05/24 10:29:52;;;;;;;1.27;0.60;;;14.20;99.90;;;;;;5012262;28;20049;-78
2022/05/24 10:38:18;;;;;;;1.33;0.50;;;13.70;99.90;;;;;;5029594;28;20045;-72
2022/05/24 10:41:28;;;;;;;1.33;0.60;;;13.60;99.90;;;;;;5011431;28;20056;-74
2022/05/24 10:43:57;;;;;;;2.58;0.80;;;13.50;99.90;;;;;;4999968;28;20874;-76
2022/05/24 10:46:44;;;;;;;2.42;0.70;;;13.50;99.90;;;;;;5029618;28;20049;-74
2022/05/24 10:49:31;;;;;;;0.60;0.60;;;13.50;99.90;;;;;;5029869;28;20190;-73
2022/05/24 10:52:33;;;;;;;0.73;0.73;;;13.60;99.90;;;;;;5042566;28;20100;-68
2022/05/24 10:55:12;;;;;;;1.45;0.73;;;13.90;99.90;;;;;;5009706;28;20042;-68
2022/05/24 10:57:56;;;;;;;1.85;0.70;;;14.20;99.90;;;;;;5010535;28;20053;-74
2022/05/24 11:00:29;;;;;;;1.88;1.05;;;14.50;99.90;;;;;;4996322;28;20052;-68
2022/05/24 11:03:10;;;;;;;1.50;1.10;;;14.80;99.90;;;;;;5022744;28;20041;-66
2022/05/24 11:05:57;;;;;;;2.15;1.30;;;15.30;99.90;;;;;;5009745;28;20045;-76
2022/05/24 11:08:46;;;;;;;2.75;1.23;;;15.50;99.90;;;;;;5013220;28;20053;-75
2022/05/24 11:11:21;;;;;;;1.97;1.27;;;15.30;99.90;;;;;;5028399;28;20435;-69
2022/05/24 11:14:13;;;;;;;2.05;1.67;;;15.20;99.90;;;;;;5026845;28;20068;-75
2022/05/24 11:16:46;;;;;;;1.90;1.17;;;15.10;99.90;;;;;;4989335;28;20195;-75
2022/05/24 11:19:19;;;;;;;1.00;1.00;;;14.90;99.90;;;;;;5026255;28;20495;-70
2022/05/24 11:22:06;;;;;;;1.48;1.38;;;14.70;99.90;;;;;;5011518;28;20033;-76
2022/05/24 11:25:15;;;;;;;2.75;1.50;;;14.40;99.90;;;;;;5028152;28;20087;-70
2022/05/24 11:27:54;;;;;;;1.98;0.98;;;14.10;99.90;;;;;;5009453;28;20668;-68
2022/05/24 11:30:25;;;;;;;1.50;0.50;;;13.90;99.90;;;;;;5012469;28;20049;-75
2022/05/24 11:33:13;;;;;;;0.47;0.35;;;13.70;99.90;;;;;;5024856;28;20069;-67
2022/05/24 11:35:44;;;;;;;0.85;0.30;;;13.50;99.90;;;;;;5025528;28;20061;-68
2022/05/24 11:38:25;;;;;;;0.15;0.15;;;13.40;99.90;;;;;;5012830;28;20429;-66
2022/05/24 11:41:12;;;;;;;2.30;0.30;;;13.40;99.90;;;;;;5029076;28;20049;-75
2022/05/24 11:43:43;;;;;;;0.68;0.40;;;13.80;99.90;;;;;;5030143;28;20052;-65
2022/05/24 11:46:33;;;;;;;2.25;0.65;;;14.20;99.90;;;;;;5014671;28;20056;-70
2022/05/24 11:49:04;;;;;;;5.72;1.05;;;14.40;99.90;;;;;;5022387;28;20466;-71
2022/05/24 11:51:36;;;;;;;2.75;0.88;;;14.40;99.90;;;;;;5044047;28;20114;-69
2022/05/24 11:54:08;;;;;;;2.72;0.93;;;14.40;99.90;;;;;;5028888;28;20044;-66
2022/05/24 11:56:34;;;;;;;0.73;0.73;;;14.40;99.90;;;;;;5029466;28;20064;-68
2022/05/24 11:59:04;;;;;;;2.35;0.90;;;14.50;99.90;;;;;;5012750;28;20045;-65
2022/05/24 12:01:43;;;;;;;2.10;1.10;;;14.80;99.90;;;;;;5029353;28;20175;-66
2022/05/24 12:10:11;;;;;;;3.65;1.15;;;15.50;99.90;;;;;;5028988;28;20495;-72
2022/05/24 12:12:50;;;;;;;1.20;0.90;;;15.60;99.90;;;;;;5029096;28;20110;-65
2022/05/24 12:15:19;;;;;;;2.33;0.98;;;15.70;99.90;;;;;;5029002;28;20444;-71
2022/05/24 12:17:47;;;;;;;;;;;15.90;99.90;;;;;;5028740;28;20051;-67
2022/05/24 12:20:34;;;;;;;1.85;0.90;;;16.10;99.90;;;;;;5029330;28;20008;-69
2022/05/24 12:23:14;;;;;;;2.60;0.80;;;16.20;99.90;;;;;;5029167;28;20053;-66
2022/05/24 12:25:55;;;;;;;1.95;0.93;;;16.30;99.90;;;;;;5028892;28;20555;-64
2022/05/24 12:28:41;;;;;;;1.02;0.57;;;16.20;99.90;;;;;;5028212;28;20052;-65
2022/05/24 12:31:29;;;;;;;1.30;0.60;;;16.10;99.90;;;;;;5012211;28;20052;-68
2022/05/24 12:33:55;;;;;;;3.03;1.02;;;15.90;99.90;;;;;;5046104;28;20052;-71
2022/05/24 12:36:43;;;;;;;1.90;0.70;;;15.80;99.90;;;;;;5028387;28;20041;-71
2022/05/24 12:39:12;;;;;;;5.38;1.10;;;15.80;99.90;;;;;;5026796;28;20057;-66
2022/05/24 12:42:05;;;;;;;0.70;0.70;;;15.80;99.90;;;;;;5026404;28;20072;-66
2022/05/24 12:44:33;;;;;;;3.22;0.70;;;15.80;99.90;;;;;;5009274;28;20148;-65
2022/05/24 12:47:11;;;;;;;4.07;1.05;;;15.60;99.90;;;;;;5009515;28;20045;-67
2022/05/24 12:49:50;;;;;;;2.38;0.45;;;15.20;99.90;;;;;;5008454;28;20061;-66
2022/05/24 12:52:24;;;;;;;2.03;0.60;;;14.60;99.90;;;;;;5026698;28;20731;-64
2022/05/24 12:54:56;;;;;;;3.67;0.93;;;14.10;99.90;;;;;;5025812;28;20037;-66
2022/05/24 12:57:35;;;;;;;4.68;0.88;;;14.00;99.90;;;;;;5026521;28;20525;-61
2022/05/24 13:00:21;;;;;;;1.38;0.70;;;14.00;99.90;;;;;;5008664;28;20045;-64
2022/05/24 13:02:50;;;;;;;2.25;0.73;;;14.20;99.90;;;;;;5025433;28;20500;-66
2022/05/24 13:05:23;;;;;;;2.73;0.90;;;14.50;99.90;;;;;;5008784;28;20056;-66
2022/05/24 13:07:55;;;;;;;2.35;0.93;;;15.00;99.90;;;;;;4991559;28;20073;-67
2022/05/24 13:10:21;;;;;;;3.72;0.90;;;15.30;99.90;;;;;;5024563;28;20061;-62
2022/05/24 13:12:52;;;;;;;1.98;0.73;;;15.50;99.90;;;;;;5007572;28;20081;-66
2022/05/24 13:15:20;;;;;;;3.88;0.90;;;15.30;99.90;;;;;;5008409;28;20053;-64
2022/05/24 13:17:51;;;;;;;19.38;2.40;;;15.10;99.90;;;;;;5008424;28;20112;-73
2022/05/24 13:20:17;;;;;;;4.63;1.23;;;15.00;99.90;;;;;;5007620;28;20483;-67
2022/05/24 13:23:15;;;;;;;4.28;1.10;;;14.50;99.90;;;;;;5007863;28;20052;-76
2022/05/24 13:26:12;;;;;;;4.22;1.20;;;14.20;99.90;;;;;;5007454;28;20462;-70
2022/05/24 13:28:53;;;;;;;4.30;1.23;;;14.20;99.90;;;;;;5007905;28;20103;-67
2022/05/24 13:34:33;;;;;;;2.50;1.15;;;14.30;99.90;;;;;;5007249;28;20492;-72
2022/05/24 13:37:07;;;;;;;1.67;0.90;;;14.40;99.90;;;;;;4991634;28;20077;-67
2022/05/24 13:39:39;;;;;;;4.47;1.33;;;14.50;99.90;;;;;;5007846;28;20098;-66
2022/05/24 13:42:26;;;;;;;6.88;1.30;;;14.60;99.90;;;;;;5025326;28;20056;-68
2022/05/24 13:45:04;;;;;;;2.85;1.02;;;14.60;99.90;;;;;;5022363;28;20044;-63
2022/05/24 13:47:35;;;;;;;5.97;1.20;;;14.70;99.90;;;;;;4992964;28;20521;-63